Terminal Aerodrome Forecast
Issued by NWS Mobile, AL

Home | Current Version | Previous Version | Text Only | Print | Product List | Glossary On
Versions: 1 2 3 4 5 6 7 8 9 10 11 12 13 14 15 16 17 18 19 20 21 22 23 24 25 26 27 28 29 30 31 32 33 34 35 36 37
000
FTUS44 KMOB 172331
TAFPNS
TAF
KPNS 172331Z 1800/1824 18008KT P6SM SCT070 SCT250
     FM180300 19006KT 1SM BR BKN005 OVC020
     FM180600 VRB03KT 1/2SM FG BKN005 OVC015
     FM181600 18005KT P6SM BKN015=

USA.gov is the U.S. government's official web portal to all federal, state and local government web resources and services.